createdAt,value
2022-12-06T00:00:30.000Z,49.55
2022-12-06T00:02:47.000Z,49.27
2022-12-06T00:05:14.000Z,50.8
2022-12-06T00:07:37.000Z,48.27
2022-12-06T00:10:04.000Z,53.15
2022-12-06T00:12:29.000Z,50.12
2022-12-06T00:14:54.000Z,56.37
2022-12-06T00:17:20.000Z,54.2
2022-12-06T00:19:46.000Z,55.65
2022-12-06T00:22:13.000Z,65.87
2022-12-06T00:24:41.000Z,60.97
2022-12-06T00:27:05.000Z,61.77
2022-12-06T00:29:29.000Z,66.67
2022-12-06T00:31:54.000Z,65.4
2022-12-06T00:34:18.000Z,65.43
2022-12-06T00:36:45.000Z,64.05
2022-12-06T00:39:12.000Z,66.75
2022-12-06T00:41:55.000Z,64.05
2022-12-06T00:44:16.000Z,63.2
2022-12-06T00:46:28.000Z,60.17
2022-12-06T00:48:53.000Z,66.53
2022-12-06T00:51:18.000Z,61
2022-12-06T00:53:44.000Z,68.07
2022-12-06T00:56:10.000Z,64.75
2022-12-06T00:58:37.000Z,67.17
2022-12-06T01:01:04.000Z,65.3
2022-12-06T01:03:27.000Z,65.85
2022-12-06T01:05:53.000Z,69.65
2022-12-06T01:08:17.000Z,68.93
2022-12-06T01:10:43.000Z,65.63
2022-12-06T01:13:10.000Z,64.37
2022-12-06T01:18:02.000Z,63.83
2022-12-06T01:20:29.000Z,71.87
2022-12-06T01:22:52.000Z,69.85
2022-12-06T01:25:18.000Z,74.67
2022-12-06T01:27:44.000Z,67.5
2022-12-06T01:30:13.000Z,80.37
2022-12-06T01:32:35.000Z,71.77
2022-12-06T01:35:00.000Z,69.7
2022-12-06T01:37:25.000Z,72.63
2022-12-06T01:39:51.000Z,66.5
2022-12-06T01:42:18.000Z,63.35
2022-12-06T01:44:43.000Z,68.75
2022-12-06T01:47:10.000Z,72.87
2022-12-06T01:49:33.000Z,68.5
2022-12-06T01:52:00.000Z,68.72
2022-12-06T01:54:26.000Z,69.63
2022-12-06T01:56:51.000Z,69.93
2022-12-06T01:59:16.000Z,71.3
2022-12-06T02:01:42.000Z,76.95
2022-12-06T02:06:34.000Z,67.67
2022-12-06T02:09:00.000Z,71.53
2022-12-06T02:11:24.000Z,68.93
2022-12-06T02:13:50.000Z,75.9
2022-12-06T02:16:16.000Z,71.05
2022-12-06T02:18:41.000Z,71.67
2022-12-06T02:21:08.000Z,69.5
2022-12-06T02:23:32.000Z,68
2022-12-06T02:25:57.000Z,71.05
2022-12-06T02:28:26.000Z,69.73
2022-12-06T02:30:50.000Z,69.03
2022-12-06T02:33:15.000Z,69.22
2022-12-06T02:35:41.000Z,67.73
2022-12-06T02:38:08.000Z,66.23
2022-12-06T02:40:39.000Z,69.93
2022-12-06T02:42:57.000Z,70.47
2022-12-06T02:45:24.000Z,72.27
2022-12-06T02:47:50.000Z,71.83
2022-12-06T02:50:16.000Z,66.4
2022-12-06T02:55:07.000Z,68.8
2022-12-06T02:57:34.000Z,68.8
2022-12-06T02:59:58.000Z,72.15
2022-12-06T03:02:24.000Z,68.47
2022-12-06T03:04:52.000Z,67.33
2022-12-06T03:07:16.000Z,65
2022-12-06T03:09:42.000Z,65.1
2022-12-06T03:12:07.000Z,60.23
2022-12-06T03:14:35.000Z,67.7
2022-12-06T03:17:00.000Z,64.25
2022-12-06T03:19:25.000Z,63.8
2022-12-06T03:21:50.000Z,70.33
2022-12-06T03:24:16.000Z,63.5
2022-12-06T03:26:42.000Z,65.92
2022-12-06T03:31:33.000Z,72.1
2022-12-06T03:33:59.000Z,74.43
2022-12-06T03:36:24.000Z,73.95
2022-12-06T03:38:51.000Z,72.6
2022-12-06T03:41:15.000Z,79.07
2022-12-06T03:43:41.000Z,83.5
2022-12-06T03:46:09.000Z,79.85
2022-12-06T03:48:31.000Z,85.13
2022-12-06T03:50:58.000Z,68.87
2022-12-06T03:53:24.000Z,71.35
2022-12-06T03:55:52.000Z,72.82
2022-12-06T03:58:19.000Z,69.8
2022-12-06T04:00:45.000Z,105
2022-12-06T04:03:10.000Z,88.1
2022-12-06T04:05:36.000Z,115.37
2022-12-06T04:08:03.000Z,94.87
2022-12-06T04:10:30.000Z,89.87
2022-12-06T04:12:54.000Z,125.87
2022-12-06T04:15:19.000Z,63.03
2022-12-06T04:17:45.000Z,75.55
2022-12-06T04:20:11.000Z,62.83
2022-12-06T04:22:36.000Z,59.77
2022-12-06T04:25:01.000Z,61.5
2022-12-06T04:29:53.000Z,54.17
2022-12-06T04:32:18.000Z,51.97
2022-12-06T04:34:44.000Z,-1
2022-12-06T04:37:10.000Z,-1
2022-12-06T04:39:35.000Z,-1
2022-12-06T04:42:04.000Z,-1
2022-12-06T04:44:31.000Z,41.9
2022-12-06T04:46:56.000Z,-1
2022-12-06T04:49:21.000Z,-1
2022-12-06T04:54:12.000Z,-1
2022-12-06T04:56:38.000Z,-1
2022-12-06T04:59:03.000Z,46
2022-12-06T05:01:33.000Z,-1
2022-12-06T05:03:56.000Z,50.27
2022-12-06T05:06:21.000Z,45.08
2022-12-06T05:08:47.000Z,43.8
2022-12-06T05:11:17.000Z,44.73
2022-12-06T05:13:38.000Z,40.97
2022-12-06T05:18:30.000Z,39.2
2022-12-06T05:20:55.000Z,37.77
2022-12-06T05:23:21.000Z,38.17
2022-12-06T05:25:46.000Z,40.9
2022-12-06T05:28:14.000Z,38.2
2022-12-06T05:30:49.000Z,35.6
2022-12-06T05:33:04.000Z,37.45
2022-12-06T05:35:29.000Z,39.33
2022-12-06T05:37:54.000Z,34.63
2022-12-06T05:40:25.000Z,34.53
2022-12-06T05:42:47.000Z,37.5
2022-12-06T05:45:17.000Z,34.18
2022-12-06T05:47:38.000Z,33.97
2022-12-06T05:50:07.000Z,35
2022-12-06T05:52:31.000Z,33.4
2022-12-06T05:54:57.000Z,34.9
2022-12-06T05:57:22.000Z,32.03
2022-12-06T05:59:48.000Z,36.25
2022-12-06T06:02:16.000Z,31.13
2022-12-06T06:07:06.000Z,36.27
2022-12-06T06:09:31.000Z,35.6
2022-12-06T06:11:58.000Z,31.07
2022-12-06T06:14:24.000Z,28.23
2022-12-06T06:17:09.000Z,30.95
2022-12-06T06:19:16.000Z,32
2022-12-06T06:21:43.000Z,29.87
2022-12-06T06:24:08.000Z,31.97
2022-12-06T06:26:34.000Z,29.52
2022-12-06T06:31:29.000Z,24.18
2022-12-06T06:33:54.000Z,26.33
2022-12-06T06:36:20.000Z,20.53
2022-12-06T06:38:47.000Z,16.37
2022-12-06T06:41:18.000Z,15.9
2022-12-06T06:43:41.000Z,14.73
2022-12-06T06:46:10.000Z,14.98
2022-12-06T06:48:37.000Z,18.17
2022-12-06T06:51:00.000Z,15.5
2022-12-06T06:55:54.000Z,19.43
2022-12-06T06:58:23.000Z,19.85
2022-12-06T07:00:58.000Z,20.55
2022-12-06T07:03:13.000Z,22.3
2022-12-06T07:05:41.000Z,21.2
2022-12-06T07:08:11.000Z,25.23
2022-12-06T07:10:36.000Z,22.77
2022-12-06T07:13:02.000Z,22.4
2022-12-06T07:15:31.000Z,26.17
2022-12-06T07:17:55.000Z,26.15
2022-12-06T07:20:27.000Z,26.07
2022-12-06T07:22:48.000Z,24.18
2022-12-06T07:25:14.000Z,26.23
2022-12-06T07:27:40.000Z,26.55
2022-12-06T07:30:08.000Z,25.03
2022-12-06T07:32:33.000Z,25.45
2022-12-06T07:35:00.000Z,23.27
2022-12-06T07:37:24.000Z,22.1
2022-12-06T07:39:50.000Z,21.17
2022-12-06T07:42:18.000Z,21.85
2022-12-06T07:44:42.000Z,23.43
2022-12-06T07:47:09.000Z,23.15
2022-12-06T07:49:36.000Z,21.6
2022-12-06T07:52:03.000Z,21.62
2022-12-06T07:54:33.000Z,27.1
2022-12-06T07:56:54.000Z,22.93
2022-12-06T07:59:20.000Z,22.23
2022-12-06T08:01:47.000Z,23.5
2022-12-06T08:04:12.000Z,21.2
2022-12-06T08:06:39.000Z,23.23
2022-12-06T08:09:08.000Z,22.8
2022-12-06T08:11:37.000Z,23.45
2022-12-06T08:14:01.000Z,23.83
2022-12-06T08:16:30.000Z,25.5
2022-12-06T08:21:20.000Z,24.12
2022-12-06T08:23:47.000Z,22.7
2022-12-06T08:26:14.000Z,23.23
2022-12-06T08:28:38.000Z,24.35
2022-12-06T08:40:47.000Z,24.02
2022-12-06T08:42:59.000Z,25.4
2022-12-06T08:45:25.000Z,24.7
2022-12-06T08:47:51.000Z,24.47
2022-12-06T08:50:25.000Z,26.52
2022-12-06T08:52:42.000Z,25.52
2022-12-06T08:55:09.000Z,25.08
2022-12-06T08:57:33.000Z,25.02
2022-12-06T09:00:00.000Z,24.6
2022-12-06T09:04:53.000Z,26
2022-12-06T09:07:17.000Z,27.07
2022-12-06T09:09:43.000Z,27.5
2022-12-06T09:12:10.000Z,27.1
2022-12-06T09:14:36.000Z,29.43
2022-12-06T09:17:03.000Z,28
2022-12-06T09:19:30.000Z,29.52
2022-12-06T09:21:54.000Z,34.7
2022-12-06T09:24:19.000Z,36.88
2022-12-06T09:26:44.000Z,36.37
2022-12-06T09:29:12.000Z,39.33
2022-12-06T09:31:37.000Z,39.48
2022-12-06T09:34:02.000Z,46.05
2022-12-06T09:36:29.000Z,47.17
2022-12-06T09:38:54.000Z,44.5
2022-12-06T09:41:25.000Z,44.48
2022-12-06T09:43:50.000Z,41.87
2022-12-06T09:46:17.000Z,41.68
2022-12-06T09:51:17.000Z,44.4
2022-12-06T09:53:42.000Z,44.08
2022-12-06T09:56:08.000Z,41.63
2022-12-06T09:58:33.000Z,41.23
2022-12-06T10:01:01.000Z,39.1
2022-12-06T10:05:57.000Z,41.25
2022-12-06T10:08:25.000Z,39.9
2022-12-06T10:10:52.000Z,42.1
2022-12-06T10:13:18.000Z,42.55
2022-12-06T10:15:46.000Z,40.08
2022-12-06T10:18:13.000Z,40
2022-12-06T10:20:40.000Z,40.75
2022-12-06T10:25:39.000Z,46.98
2022-12-06T10:28:11.000Z,49.08
2022-12-06T10:30:41.000Z,51.03
2022-12-06T10:33:09.000Z,51.85
2022-12-06T10:35:35.000Z,53.55
2022-12-06T10:40:31.000Z,55.63
2022-12-06T10:45:32.000Z,61.2
2022-12-06T10:47:53.000Z,57.9
2022-12-06T10:50:52.000Z,59.33
2022-12-06T10:56:39.000Z,52.62
2022-12-06T10:59:05.000Z,42.9
2022-12-06T11:01:34.000Z,45.12
2022-12-06T11:04:03.000Z,44.5
2022-12-06T11:06:29.000Z,42.1
2022-12-06T11:08:55.000Z,39.45
2022-12-06T11:11:26.000Z,34.75
2022-12-06T11:13:56.000Z,40.52
2022-12-06T11:16:21.000Z,35.83
2022-12-06T11:18:50.000Z,34.9
2022-12-06T11:23:41.000Z,32.97
2022-12-06T11:26:07.000Z,33.73
2022-12-06T11:28:33.000Z,33.05
2022-12-06T11:31:04.000Z,32.53
2022-12-06T11:33:31.000Z,31.33
2022-12-06T11:36:00.000Z,33.65
2022-12-06T11:38:27.000Z,31.55
2022-12-06T11:40:54.000Z,30.23
2022-12-06T11:43:25.000Z,33.2
2022-12-06T11:46:14.000Z,28.67
2022-12-06T11:48:46.000Z,27.27
2022-12-06T11:51:09.000Z,29.57
2022-12-06T11:53:15.000Z,27.9
2022-12-06T11:55:42.000Z,26.8
2022-12-06T11:58:09.000Z,26.3
2022-12-06T12:00:52.000Z,25.9
2022-12-06T12:03:10.000Z,26.7
2022-12-06T12:05:29.000Z,24.7
2022-12-06T12:07:59.000Z,28.05
2022-12-06T12:10:28.000Z,27.85
2022-12-06T12:12:54.000Z,29.9
2022-12-06T12:17:47.000Z,26.65
2022-12-06T12:20:16.000Z,23.5
2022-12-06T12:22:40.000Z,25.12
2022-12-06T12:25:07.000Z,25.05
2022-12-06T12:27:34.000Z,24.98
2022-12-06T12:30:01.000Z,23.93
2022-12-06T12:32:32.000Z,23.87
2022-12-06T12:35:07.000Z,22.9
2022-12-06T12:37:29.000Z,22.9
2022-12-06T12:39:57.000Z,25.1
2022-12-06T12:42:26.000Z,22.4
2022-12-06T12:44:53.000Z,25
2022-12-06T12:47:19.000Z,21.75
2022-12-06T12:49:46.000Z,22.9
2022-12-06T12:52:16.000Z,25.32
2022-12-06T12:54:52.000Z,25.08
2022-12-06T12:57:11.000Z,26.77
2022-12-06T12:59:35.000Z,24.2
2022-12-06T13:02:12.000Z,24.87
2022-12-06T13:07:13.000Z,22.85
2022-12-06T13:09:43.000Z,25.57
2022-12-06T13:12:17.000Z,27
2022-12-06T13:14:41.000Z,30.75
2022-12-06T13:17:36.000Z,25.48
2022-12-06T13:19:44.000Z,25.85
2022-12-06T13:21:56.000Z,29.15
2022-12-06T13:24:25.000Z,30.35
2022-12-06T13:26:52.000Z,28.67
2022-12-06T13:29:24.000Z,30.17
2022-12-06T13:32:01.000Z,30.32
2022-12-06T13:34:16.000Z,32.77
2022-12-06T13:36:41.000Z,32.93
2022-12-06T13:39:08.000Z,33.6
2022-12-06T13:41:36.000Z,32.1
2022-12-06T13:44:02.000Z,34.2
2022-12-06T13:49:22.000Z,32.4
2022-12-06T13:51:23.000Z,30.08
2022-12-06T13:53:53.000Z,32.83
2022-12-06T13:56:20.000Z,33.35
2022-12-06T13:58:45.000Z,33.08
2022-12-06T14:01:19.000Z,35.03
2022-12-06T14:03:40.000Z,35.25
2022-12-06T14:06:09.000Z,33.92
2022-12-06T14:08:43.000Z,30.05
2022-12-06T14:11:09.000Z,32.5
2022-12-06T14:13:40.000Z,31.75
2022-12-06T14:16:09.000Z,29.7
2022-12-06T14:18:36.000Z,30.65
2022-12-06T14:21:04.000Z,33.23
2022-12-06T14:23:31.000Z,31.7
2022-12-06T14:31:12.000Z,30.48
2022-12-06T14:33:27.000Z,32.05
2022-12-06T14:38:31.000Z,30.8
2022-12-06T14:41:13.000Z,31.97
2022-12-06T14:43:35.000Z,29.75
2022-12-06T14:45:59.000Z,30.15
2022-12-06T14:48:13.000Z,28.87
2022-12-06T14:50:45.000Z,29.57
2022-12-06T14:55:34.000Z,29.43
2022-12-06T14:58:00.000Z,28.37
2022-12-06T15:00:29.000Z,28.6
2022-12-06T15:02:56.000Z,29.55
2022-12-06T15:05:21.000Z,28.45
2022-12-06T15:10:20.000Z,33.25
2022-12-06T15:12:44.000Z,31.42
2022-12-06T15:15:14.000Z,31.68
2022-12-06T15:17:37.000Z,27.9
2022-12-06T15:20:15.000Z,29.05
2022-12-06T15:22:28.000Z,29.23
2022-12-06T15:24:58.000Z,26.73
2022-12-06T15:27:27.000Z,27.07
2022-12-06T15:29:55.000Z,26.75
2022-12-06T15:32:21.000Z,27.32
2022-12-06T15:34:46.000Z,28.23
2022-12-06T15:37:19.000Z,25.9
2022-12-06T15:39:41.000Z,29.32
2022-12-06T15:42:09.000Z,25.75
2022-12-06T15:44:34.000Z,26.2
2022-12-06T15:47:00.000Z,26.97
2022-12-06T15:49:28.000Z,27.05
2022-12-06T15:52:02.000Z,27.17
2022-12-06T15:54:20.000Z,25.35
2022-12-06T15:56:45.000Z,26.3
2022-12-06T15:59:12.000Z,25.97
2022-12-06T16:01:47.000Z,26.8
2022-12-06T16:04:19.000Z,26.77
2022-12-06T16:06:30.000Z,26.13
2022-12-06T16:09:00.000Z,26.42
2022-12-06T16:11:21.000Z,26.87
2022-12-06T16:13:47.000Z,25.27
2022-12-06T16:16:15.000Z,25.85
2022-12-06T16:18:40.000Z,25.9
2022-12-06T16:21:05.000Z,25.03
2022-12-06T16:23:31.000Z,24.87
2022-12-06T16:25:58.000Z,25.57
2022-12-06T16:28:23.000Z,23.65
2022-12-06T16:30:49.000Z,26.93
2022-12-06T16:33:15.000Z,27.43
2022-12-06T16:35:41.000Z,24.32
2022-12-06T16:38:08.000Z,28.2
2022-12-06T16:41:13.000Z,27.77
2022-12-06T16:43:44.000Z,26.07
2022-12-06T16:45:48.000Z,27.47
2022-12-06T16:47:49.000Z,26.77
2022-12-06T16:50:16.000Z,30.9
2022-12-06T16:52:42.000Z,25.4
2022-12-06T16:55:09.000Z,25.27
2022-12-06T16:57:37.000Z,26.25
2022-12-06T16:59:59.000Z,26.6
2022-12-06T17:02:32.000Z,22.27
2022-12-06T17:04:50.000Z,25.43
2022-12-06T17:07:16.000Z,25.65
2022-12-06T17:09:42.000Z,25.12
2022-12-06T17:12:08.000Z,26.97
2022-12-06T17:14:34.000Z,26.25
2022-12-06T17:17:01.000Z,24.87
2022-12-06T17:19:43.000Z,24.7
2022-12-06T17:22:21.000Z,26.27
2022-12-06T17:25:06.000Z,27.67
2022-12-06T17:27:55.000Z,25.05
2022-12-06T17:30:21.000Z,27.4
2022-12-06T17:32:44.000Z,27.33
2022-12-06T17:34:53.000Z,27.58
2022-12-06T17:37:05.000Z,27.93
2022-12-06T17:39:17.000Z,27.53
2022-12-06T17:41:35.000Z,27.8
2022-12-06T17:43:43.000Z,28.98
2022-12-06T17:46:09.000Z,27.9
2022-12-06T17:48:35.000Z,30.03
2022-12-06T17:50:59.000Z,29.05
2022-12-06T17:53:25.000Z,28.92
2022-12-06T17:55:53.000Z,31.43
2022-12-06T17:58:17.000Z,33.45
2022-12-06T18:00:56.000Z,34.05
2022-12-06T18:03:07.000Z,32.83
2022-12-06T18:05:33.000Z,32.73
2022-12-06T18:07:58.000Z,35.9
2022-12-06T18:10:25.000Z,31.97
2022-12-06T18:12:50.000Z,32.37
2022-12-06T18:15:24.000Z,34.53
2022-12-06T18:18:07.000Z,32.7
2022-12-06T18:22:33.000Z,34.53
2022-12-06T18:24:59.000Z,32.53
2022-12-06T18:27:23.000Z,32.77
2022-12-06T18:29:50.000Z,36.93
2022-12-06T18:32:15.000Z,33.67
2022-12-06T18:34:40.000Z,35.23
2022-12-06T18:37:06.000Z,34.37
2022-12-06T18:39:33.000Z,36.58
2022-12-06T18:42:00.000Z,32.2
2022-12-06T18:44:24.000Z,29.97
2022-12-06T18:46:49.000Z,32.73
2022-12-06T18:49:16.000Z,35.13
2022-12-06T18:51:41.000Z,37.97
2022-12-06T18:54:07.000Z,39.65
2022-12-06T18:56:32.000Z,41.57
2022-12-06T18:58:58.000Z,43.73
2022-12-06T19:01:34.000Z,45.5
2022-12-06T19:03:49.000Z,44.53
2022-12-06T19:06:16.000Z,43.13
2022-12-06T19:08:40.000Z,44.18
2022-12-06T19:11:14.000Z,43.2
2022-12-06T19:13:39.000Z,43.1
2022-12-06T19:16:03.000Z,46.85
2022-12-06T19:18:22.000Z,47.67
2022-12-06T19:20:48.000Z,42.9
2022-12-06T19:23:14.000Z,45.03
2022-12-06T19:25:42.000Z,44.58
2022-12-06T19:28:06.000Z,44.97
2022-12-06T19:30:41.000Z,42.4
2022-12-06T19:33:07.000Z,42.45
2022-12-06T19:35:23.000Z,40.73
2022-12-06T19:37:49.000Z,43.42
2022-12-06T19:40:16.000Z,44.25
2022-12-06T19:42:41.000Z,42.05
2022-12-06T19:45:06.000Z,39.33
2022-12-06T19:47:32.000Z,40.93
2022-12-06T19:49:59.000Z,39.55
2022-12-06T19:52:25.000Z,39.9
2022-12-06T19:54:48.000Z,39.77
2022-12-06T19:57:13.000Z,42.83
2022-12-06T19:59:40.000Z,45.95
2022-12-06T20:02:21.000Z,43.83
2022-12-06T20:04:32.000Z,47.25
2022-12-06T20:06:58.000Z,46.75
2022-12-06T20:09:23.000Z,49.97
2022-12-06T20:11:48.000Z,48.03
2022-12-06T20:14:14.000Z,47.4
2022-12-06T20:16:40.000Z,44.47
2022-12-06T20:19:07.000Z,46.47
2022-12-06T20:21:32.000Z,45.75
2022-12-06T20:23:57.000Z,42
2022-12-06T20:26:23.000Z,44.1
2022-12-06T20:28:48.000Z,41.77
2022-12-06T20:31:15.000Z,38.78
2022-12-06T20:33:39.000Z,38.45
2022-12-06T20:36:06.000Z,35.73
2022-12-06T20:38:31.000Z,37.5
2022-12-06T20:40:58.000Z,34.95
2022-12-06T20:43:24.000Z,30.57
2022-12-06T20:45:50.000Z,33.05
2022-12-06T20:48:18.000Z,30.68
2022-12-06T20:50:41.000Z,30.17
2022-12-06T20:53:06.000Z,30.2
2022-12-06T20:55:32.000Z,29.6
2022-12-06T20:57:58.000Z,27.73
2022-12-06T21:00:35.000Z,29.4
2022-12-06T21:02:49.000Z,22.85
2022-12-06T21:05:15.000Z,24.9
2022-12-06T21:07:42.000Z,23.15
2022-12-06T21:10:13.000Z,23.07
2022-12-06T21:12:42.000Z,20.03
2022-12-06T21:14:59.000Z,20.68
2022-12-06T21:17:23.000Z,24.77
2022-12-06T21:19:49.000Z,19.73
2022-12-06T21:22:16.000Z,20
2022-12-06T21:24:41.000Z,20.33
2022-12-06T21:27:07.000Z,21.5
2022-12-06T21:29:34.000Z,23.77
2022-12-06T21:31:58.000Z,20.88
2022-12-06T21:34:24.000Z,24.8
2022-12-06T21:36:49.000Z,20.2
2022-12-06T21:39:16.000Z,22.22
2022-12-06T21:41:42.000Z,22.98
2022-12-06T21:44:08.000Z,23.05
2022-12-06T21:46:34.000Z,20.25
2022-12-06T21:48:58.000Z,22
2022-12-06T21:51:25.000Z,22.82
2022-12-06T21:53:52.000Z,21.23
2022-12-06T21:56:26.000Z,21.33
2022-12-06T21:58:42.000Z,24.57
2022-12-06T22:01:12.000Z,24.8
2022-12-06T22:03:33.000Z,22.1
2022-12-06T22:05:59.000Z,21.97
2022-12-06T22:08:24.000Z,23.5
2022-12-06T22:10:51.000Z,20
2022-12-06T22:13:23.000Z,23.02
2022-12-06T22:15:43.000Z,21.25
2022-12-06T22:18:09.000Z,20.3
2022-12-06T22:20:33.000Z,21.97
2022-12-06T22:22:58.000Z,20.87
2022-12-06T22:25:25.000Z,23.57
2022-12-06T22:27:49.000Z,23.03
2022-12-06T22:30:19.000Z,22.7
2022-12-06T22:32:41.000Z,26.23
2022-12-06T22:35:07.000Z,23.77
2022-12-06T22:37:34.000Z,27.1
2022-12-06T22:40:09.000Z,24.05
2022-12-06T22:42:44.000Z,23.33
2022-12-06T22:44:58.000Z,25
2022-12-06T22:47:17.000Z,25.15
2022-12-06T22:49:42.000Z,24.55
2022-12-06T22:52:08.000Z,28.27
2022-12-06T22:54:33.000Z,25.7
2022-12-06T22:57:28.000Z,32.35
2022-12-06T22:59:58.000Z,26.6
2022-12-06T23:02:16.000Z,27.43
2022-12-06T23:04:17.000Z,30.23
2022-12-06T23:06:42.000Z,27.32
2022-12-06T23:09:08.000Z,28.7
2022-12-06T23:11:33.000Z,27.82
2022-12-06T23:13:59.000Z,30.25
2022-12-06T23:16:25.000Z,27.83
2022-12-06T23:18:50.000Z,29.73
2022-12-06T23:21:18.000Z,28.62
2022-12-06T23:23:43.000Z,31.03
2022-12-06T23:26:08.000Z,31.03
2022-12-06T23:28:32.000Z,28.42
2022-12-06T23:30:59.000Z,29.7
2022-12-06T23:33:24.000Z,31.37
2022-12-06T23:35:50.000Z,34.47
2022-12-06T23:38:17.000Z,33.77
2022-12-06T23:40:47.000Z,33.93
2022-12-06T23:43:07.000Z,29.8
2022-12-06T23:45:33.000Z,31.85
2022-12-06T23:47:59.000Z,35.4
2022-12-06T23:50:31.000Z,32.23
2022-12-06T23:53:01.000Z,32.8
2022-12-06T23:55:18.000Z,35.17
2022-12-06T23:57:43.000Z,46.53
